Latest Coastal Weather Observations for Bougainville Reef

IDQ60701

Issued at 6:51 am EST Friday 18 October 2019 (issued every 10 minutes, with the page automatically refreshed every 10 minutes)

About coastal observations | Map of coastal stations | Coastal observations for QLD | Marine services | Other Formats
Station Details ID: 200840 Name: BOUGAINVILLE REEF Lat: -15.49 Lon: 147.12 Height: 0.0 m
Data from the previous 72 hours. | See also: Recent months for locations in Queensland
Date/Time
EST
Wind Sea
Height
m
Swell Vis
km
Cloud Weather Temp
°C
Press
hPa
Rain since
9am
mm
Dir  Spd
kts
Gust
kts
Height
m
Period
s
Dir
18/06:30am ESE 10 12 - - - - - - - - 1015.4 -
18/06:00am E 11 13 - - - - - - - - 1014.8 -
18/05:30am E 11 15 - - - - - - - - 1014.3 -
18/05:00am ENE 12 14 - - - - - - - - 1014.0 -
18/04:30am ENE 11 13 - - - - - - - - 1013.8 -
18/04:00am ENE 11 12 - - - - - - - - 1013.7 -
18/03:00am ENE 11 - - - - - - - - - 1013.7 -
18/02:00am ENE 11 12 - - - - - - - - 1014.4 -
18/01:30am ENE 11 13 - - - - - - - - 1014.8 -
18/01:00am ENE 13 15 - - - - - - - - 1015.0 -
18/12:30am ENE 13 15 - - - - - - - - 1015.5 -
18/12:00am ENE 13 14 - - - - - - - - 1015.8 -
 
Date/Time
EST
Wind Sea
Height
m
Swell Vis
km
Cloud Weather Temp
°C
Press
hPa
Rain since
9am
mm
Dir  Spd
kts
Gust
kts
Height
m
Period
s
Dir
17/11:30pm ENE 12 15 - - - - - - - - 1015.9 -
17/11:00pm ENE 14 17 - - - - - - - - 1016.0 -
17/10:30pm ENE 14 15 - - - - - - - - 1016.1 -
17/10:00pm ENE 14 16 - - - - - - - - 1016.0 -
17/09:30pm ENE 13 15 - - - - - - - - 1015.9 -
17/09:00pm E 13 14 - - - - - - - - 1015.7 -
17/08:30pm E 13 15 - - - - - - - - 1015.6 -
17/08:00pm E 13 15 - - - - - - - - 1015.3 -
17/07:30pm E 13 14 - - - - - - - - 1015.0 -
17/07:00pm E 12 14 - - - - - - - - 1014.8 -
17/06:30pm ESE 12 14 - - - - - - - - 1014.6 -
17/06:00pm ESE 12 13 - - - - - - - - 1014.3 -
17/05:30pm ESE 11 13 - - - - - - - - 1014.1 -
17/05:00pm ESE 11 13 - - - - - - - - 1014.0 -
17/04:30pm E 10 12 - - - - - - - - 1013.7 -
17/04:00pm E 10 11 - - - - - - - - 1013.8 -
17/03:30pm E 10 12 - - - - - - - - 1013.8 -
17/03:00pm ESE 11 12 - - - - - - - - 1014.1 -
17/02:30pm E 11 12 - - - - - - - - 1014.2 -
17/02:00pm E 11 12 - - - - - - - - 1014.4 -
17/01:30pm E 11 12 - - - - - - - - 1014.7 -
17/01:00pm E 10 11 - - - - - - - - 1014.9 -
17/12:30pm E 8 11 - - - - - - - - 1015.4 -
17/12:00pm E 9 10 - - - - - - - - 1015.7 -
17/11:30am E 9 10 - - - - - - - - 1016.0 -
17/11:00am E 9 10 - - - - - - - - 1016.4 -
17/10:30am E 8 9 - - - - - - - - 1016.4 -
17/10:00am E 8 9 - - - - - - - - 1016.7 -
17/09:30am ENE 8 11 - - - - - - - - 1016.7 -
17/09:00am E 9 11 - - - - - - - - 1016.6 -
17/08:30am ENE 9 10 - - - - - - - - 1016.5 -
17/08:00am E 10 11 - - - - - - - - 1016.3 -
17/07:30am E 11 13 - - - - - - - - 1015.9 -
17/07:00am E 10 11 - - - - - - - - 1015.4 -
17/06:30am E 11 13 - - - - - - - - 1015.0 -
17/06:00am E 9 10 - - - - - - - - 1014.6 -
17/05:30am E 10 12 - - - - - - - - 1014.3 -
17/05:00am E 9 11 - - - - - - - - 1014.1 -
17/04:30am - - - - - - - - - - - 1013.9 -
17/04:00am ESE 10 11 - - - - - - - - 1013.5 -
17/03:30am E 10 13 - - - - - - - - 1013.4 -
17/03:00am E 11 14 - - - - - - - - 1013.1 -
17/02:30am ENE 13 15 - - - - - - - - 1013.1 -
17/02:00am E 13 16 - - - - - - - - 1013.1 -
17/01:30am E 14 15 - - - - - - - - 1013.5 -
17/01:00am ENE 15 17 - - - - - - - - 1013.6 -
 
Date/Time
EST
Wind Sea
Height
m
Swell Vis
km
Cloud Weather Temp
°C
Press
hPa
Rain since
9am
mm
Dir  Spd
kts
Gust
kts
Height
m
Period
s
Dir
16/11:30pm ENE 17 19 - - - - - - - - 1014.1 -
16/11:00pm E 14 17 - - - - - - - - 1014.5 -
16/10:30pm E 15 18 - - - - - - - - 1014.8 -
16/09:30pm E 15 17 - - - - - - - - 1014.5 -
16/09:00pm E 15 17 - - - - - - - - 1014.2 -
16/08:30pm E 14 16 - - - - - - - - 1014.1 -
16/08:00pm E 14 16 - - - - - - - - 1013.9 -
16/07:30pm E 13 16 - - - - - - - - 1013.7 -
16/07:00pm ESE 10 12 - - - - - - - - 1013.6 -
16/06:30pm ESE 10 12 - - - - - - - - 1013.5 -
16/06:00pm E 11 13 - - - - - - - - 1013.4 -
16/05:30pm E 10 11 - - - - - - - - 1013.2 -
16/05:00pm ENE 10 11 - - - - - - - - 1013.1 -
16/04:30pm E 9 11 - - - - - - - - 1013.0 -
16/04:00pm ESE 7 9 - - - - - - - - 1013.0 -
16/03:30pm ESE 6 8 - - - - - - - - 1013.1 -
16/03:00pm E 7 9 - - - - - - - - 1013.2 -
16/02:30pm E 7 8 - - - - - - - - 1013.2 -
16/02:00pm E 5 7 - - - - - - - - 1013.4 -
16/01:30pm ENE 5 7 - - - - - - - - 1013.7 -
16/01:00pm E 5 6 - - - - - - - - 1014.1 -
16/12:30pm ENE 6 7 - - - - - - - - 1014.7 -
16/12:00pm E 6 8 - - - - - - - - 1014.9 -
16/11:30am NNE 7 8 - - - - - - - - 1015.3 -
16/11:00am NE 6 7 - - - - - - - - 1015.5 -
16/10:30am NNE 8 9 - - - - - - - - 1015.7 -
16/10:00am NE 8 10 - - - - - - - - 1015.9 -
16/09:30am ENE 9 12 - - - - - - - - 1016.1 -
16/09:00am NE 11 14 - - - - - - - - 1016.2 -
16/08:30am ENE 11 13 - - - - - - - - 1015.9 -
16/08:00am ENE 10 11 - - - - - - - - 1015.7 -
16/07:30am ENE 11 13 - - - - - - - - 1015.4 -
16/07:00am ENE 12 14 - - - - - - - - 1015.0 -
16/06:30am ENE 12 14 - - - - - - - - 1014.5 -
16/06:00am ENE 13 15 - - - - - - - - 1013.9 -
16/05:30am ENE 12 15 - - - - - - - - 1013.4 -
16/05:00am E 12 15 - - - - - - - - 1013.1 -
16/04:30am ENE 11 13 - - - - - - - - 1012.8 -
16/04:00am ENE 11 14 - - - - - - - - 1012.6 -
16/03:30am ENE 13 15 - - - - - - - - 1012.2 -
16/03:00am ENE 10 13 - - - - - - - - 1012.3 -
16/02:30am E 11 13 - - - - - - - - 1012.4 -
16/02:00am ENE 10 15 - - - - - - - - 1012.6 -
16/01:30am ENE 12 15 - - - - - - - - 1012.6 -
16/01:00am ENE 12 15 - - - - - - - - 1012.8 -
16/12:30am E 11 13 - - - - - - - - 1013.3 -
16/12:00am ENE 12 14 - - - - - - - - 1013.3 -
 
Date/Time
EST
Wind Sea
Height
m
Swell Vis
km
Cloud Weather Temp
°C
Press
hPa
Rain since
9am
mm
Dir  Spd
kts
Gust
kts
Height
m
Period
s
Dir
15/11:30pm E 11 13 - - - - - - - - 1013.7 -
15/11:00pm E 11 13 - - - - - - - - 1013.8 -
15/10:30pm ESE 11 13 - - - - - - - - 1013.9 -
15/10:00pm ESE 11 13 - - - - - - - - 1014.0 -
15/09:30pm ESE 11 13 - - - - - - - - 1013.8 -
15/09:00pm ESE 11 13 - - - - - - - - 1013.5 -
15/08:30pm ENE 10 11 - - - - - - - - 1012.4 -
15/08:00pm ENE 9 11 - - - - - - - - 1012.4 -
15/07:30pm ESE 9 11 - - - - - - - - 1012.5 -
15/07:00pm SE 10 12 - - - - - - - - 1012.6 -
15/06:30pm ESE 10 11 - - - - - - - - 1012.4 -
15/06:00pm SE 10 11 - - - - - - - - 1012.3 -
15/05:30pm SE 9 11 - - - - - - - - 1012.0 -
15/05:00pm SE 9 11 - - - - - - - - 1011.9 -
15/04:30pm SE 8 10 - - - - - - - - 1011.8 -
15/04:00pm SE 9 11 - - - - - - - - 1011.9 -
15/03:30pm SE 8 10 - - - - - - - - 1012.1 -
15/03:00pm SE 8 9 - - - - - - - - 1012.4 -
15/02:30pm SE 8 10 - - - - - - - - 1012.7 -
15/02:00pm ESE 8 9 - - - - - - - - 1012.9 -
15/01:30pm ESE 9 10 - - - - - - - - 1013.3 -
15/01:00pm ESE 8 10 - - - - - - - - 1013.6 -
15/12:30pm ESE 9 11 - - - - - - - - 1014.0 -
15/12:00pm E 10 12 - - - - - - - - 1014.4 -
15/11:30am E 11 13 - - - - - - - - 1014.7 -
15/11:00am E 12 13 - - - - - - - - 1015.1 -
15/10:30am E 13 15 - - - - - - - - 1015.3 -
15/10:00am E 13 15 - - - - - - - - 1015.7 -
15/09:30am E 14 16 - - - - - - - - 1016.0 -
15/09:00am ESE 14 17 - - - - - - - - 1016.2 -
15/08:30am E 15 17 - - - - - - - - 1016.2 -
15/08:00am ESE 15 19 - - - - - - - - 1016.2 -
15/07:30am ESE 16 18 - - - - - - - - 1015.9 -
15/07:00am ESE 16 19 - - - - - - - - 1015.6 -

Other formats

Comma delimited format used in spreadsheet applications
http://www.bom.gov.au/fwo/IDQ60701/IDQ60701.95288.axf

JavaScript Object Notation format (JSON) in row-major order
http://www.bom.gov.au/fwo/IDQ60701/IDQ60701.95288.json

Data quality

Most of these data are generated automatically and are frequently updated. Quality checks on data are not normally performed. It is possible for incorrect values to appear. Refer to information at About Latest Weather Observations and please check the disclaimer before using these data.